sensor_id;sensor_type;location;lat;lon;timestamp;P1;durP1;ratioP1;P2;durP2;ratioP2
23676;SDS011;31493;49.058;12.190;2023-05-02T00:02:05;16.25;;;13.85;;
23676;SDS011;31493;49.058;12.190;2023-05-02T00:04:32;18.00;;;14.32;;
23676;SDS011;31493;49.058;12.190;2023-05-02T00:06:59;17.52;;;14.32;;
23676;SDS011;31493;49.058;12.190;2023-05-02T00:09:26;18.50;;;14.90;;
23676;SDS011;31493;49.058;12.190;2023-05-02T00:11:55;18.42;;;15.00;;
23676;SDS011;31493;49.058;12.190;2023-05-02T00:14:22;18.38;;;14.68;;
23676;SDS011;31493;49.058;12.190;2023-05-02T00:16:50;18.40;;;14.67;;
23676;SDS011;31493;49.058;12.190;2023-05-02T00:19:18;23.45;;;17.65;;
23676;SDS011;31493;49.058;12.190;2023-05-02T00:21:46;26.23;;;17.40;;
23676;SDS011;31493;49.058;12.190;2023-05-02T00:24:13;17.52;;;15.13;;
23676;SDS011;31493;49.058;12.190;2023-05-02T00:26:40;20.10;;;15.95;;
23676;SDS011;31493;49.058;12.190;2023-05-02T00:29:07;19.10;;;14.27;;
23676;SDS011;31493;49.058;12.190;2023-05-02T00:31:34;18.05;;;15.25;;
23676;SDS011;31493;49.058;12.190;2023-05-02T00:34:01;20.20;;;15.02;;
23676;SDS011;31493;49.058;12.190;2023-05-02T00:36:30;19.27;;;15.48;;
23676;SDS011;31493;49.058;12.190;2023-05-02T00:38:57;22.55;;;18.67;;
23676;SDS011;31493;49.058;12.190;2023-05-02T00:41:24;27.60;;;20.67;;
23676;SDS011;31493;49.058;12.190;2023-05-02T00:43:52;25.17;;;20.88;;
23676;SDS011;31493;49.058;12.190;2023-05-02T00:46:19;26.30;;;20.65;;
23676;SDS011;31493;49.058;12.190;2023-05-02T00:48:46;25.38;;;20.15;;
23676;SDS011;31493;49.058;12.190;2023-05-02T00:51:13;27.67;;;20.52;;
23676;SDS011;31493;49.058;12.190;2023-05-02T00:53:42;25.63;;;20.75;;
23676;SDS011;31493;49.058;12.190;2023-05-02T00:56:09;22.85;;;18.77;;
23676;SDS011;31493;49.058;12.190;2023-05-02T00:58:36;24.27;;;19.55;;
23676;SDS011;31493;49.058;12.190;2023-05-02T01:01:07;25.23;;;19.30;;
23676;SDS011;31493;49.058;12.190;2023-05-02T01:03:45;28.67;;;20.35;;
23676;SDS011;31493;49.058;12.190;2023-05-02T01:06:24;28.35;;;20.13;;
23676;SDS011;31493;49.058;12.190;2023-05-02T01:09:01;23.55;;;19.40;;
23676;SDS011;31493;49.058;12.190;2023-05-02T01:11:50;25.73;;;18.50;;
23676;SDS011;31493;49.058;12.190;2023-05-02T01:14:22;22.83;;;19.52;;
23676;SDS011;31493;49.058;12.190;2023-05-02T01:16:51;26.55;;;19.77;;
23676;SDS011;31493;49.058;12.190;2023-05-02T01:19:20;24.77;;;20.30;;
23676;SDS011;31493;49.058;12.190;2023-05-02T01:21:52;25.58;;;18.40;;
23676;SDS011;31493;49.058;12.190;2023-05-02T01:24:24;27.13;;;20.60;;
23676;SDS011;31493;49.058;12.190;2023-05-02T01:26:58;27.85;;;20.67;;
23676;SDS011;31493;49.058;12.190;2023-05-02T01:29:34;27.58;;;20.42;;
23676;SDS011;31493;49.058;12.190;2023-05-02T01:32:04;26.35;;;21.42;;
23676;SDS011;31493;49.058;12.190;2023-05-02T01:34:33;27.77;;;21.90;;
23676;SDS011;31493;49.058;12.190;2023-05-02T01:37:02;29.75;;;20.90;;
23676;SDS011;31493;49.058;12.190;2023-05-02T01:39:31;31.80;;;21.83;;
23676;SDS011;31493;49.058;12.190;2023-05-02T01:42:01;27.20;;;20.98;;
23676;SDS011;31493;49.058;12.190;2023-05-02T01:44:30;29.02;;;21.55;;
23676;SDS011;31493;49.058;12.190;2023-05-02T01:47:02;30.05;;;21.30;;
23676;SDS011;31493;49.058;12.190;2023-05-02T01:49:31;25.25;;;21.35;;
23676;SDS011;31493;49.058;12.190;2023-05-02T01:52:01;29.70;;;21.25;;
23676;SDS011;31493;49.058;12.190;2023-05-02T01:54:30;25.63;;;20.58;;
23676;SDS011;31493;49.058;12.190;2023-05-02T01:57:00;28.65;;;22.27;;
23676;SDS011;31493;49.058;12.190;2023-05-02T01:59:30;31.15;;;21.85;;
23676;SDS011;31493;49.058;12.190;2023-05-02T02:02:01;27.92;;;22.65;;
23676;SDS011;31493;49.058;12.190;2023-05-02T02:04:30;26.48;;;22.95;;
23676;SDS011;31493;49.058;12.190;2023-05-02T02:07:01;27.25;;;21.33;;
23676;SDS011;31493;49.058;12.190;2023-05-02T02:09:32;27.05;;;20.92;;
23676;SDS011;31493;49.058;12.190;2023-05-02T02:12:01;27.10;;;21.90;;
23676;SDS011;31493;49.058;12.190;2023-05-02T02:14:32;25.77;;;20.10;;
23676;SDS011;31493;49.058;12.190;2023-05-02T02:17:05;25.52;;;19.52;;
23676;SDS011;31493;49.058;12.190;2023-05-02T02:19:38;24.65;;;19.95;;
23676;SDS011;31493;49.058;12.190;2023-05-02T02:24:34;27.65;;;22.00;;
23676;SDS011;31493;49.058;12.190;2023-05-02T02:27:03;30.52;;;22.92;;
23676;SDS011;31493;49.058;12.190;2023-05-02T02:29:30;30.00;;;22.90;;
23676;SDS011;31493;49.058;12.190;2023-05-02T02:31:58;32.50;;;23.88;;
23676;SDS011;31493;49.058;12.190;2023-05-02T02:34:26;31.15;;;23.52;;
23676;SDS011;31493;49.058;12.190;2023-05-02T02:36:54;27.13;;;21.08;;
23676;SDS011;31493;49.058;12.190;2023-05-02T02:39:28;22.13;;;16.98;;
23676;SDS011;31493;49.058;12.190;2023-05-02T02:42:07;23.77;;;19.67;;
23676;SDS011;31493;49.058;12.190;2023-05-02T02:44:39;30.48;;;24.48;;
23676;SDS011;31493;49.058;12.190;2023-05-02T02:47:15;33.10;;;24.65;;
23676;SDS011;31493;49.058;12.190;2023-05-02T02:49:49;29.63;;;23.92;;
23676;SDS011;31493;49.058;12.190;2023-05-02T02:52:27;34.20;;;25.52;;
23676;SDS011;31493;49.058;12.190;2023-05-02T02:55:04;36.65;;;26.77;;
23676;SDS011;31493;49.058;12.190;2023-05-02T02:57:36;30.10;;;24.13;;
23676;SDS011;31493;49.058;12.190;2023-05-02T03:00:07;25.00;;;19.92;;
23676;SDS011;31493;49.058;12.190;2023-05-02T03:02:39;24.85;;;19.52;;
23676;SDS011;31493;49.058;12.190;2023-05-02T03:07:36;32.80;;;23.42;;
23676;SDS011;31493;49.058;12.190;2023-05-02T03:10:04;30.35;;;23.92;;
23676;SDS011;31493;49.058;12.190;2023-05-02T03:12:32;35.67;;;24.50;;
23676;SDS011;31493;49.058;12.190;2023-05-02T03:15:01;36.15;;;25.25;;
23676;SDS011;31493;49.058;12.190;2023-05-02T03:17:40;32.28;;;24.15;;
23676;SDS011;31493;49.058;12.190;2023-05-02T03:20:07;35.20;;;24.45;;
23676;SDS011;31493;49.058;12.190;2023-05-02T03:22:35;31.67;;;22.92;;
23676;SDS011;31493;49.058;12.190;2023-05-02T03:25:03;25.75;;;20.27;;
23676;SDS011;31493;49.058;12.190;2023-05-02T03:27:30;27.02;;;20.98;;
23676;SDS011;31493;49.058;12.190;2023-05-02T03:29:57;31.42;;;23.65;;
23676;SDS011;31493;49.058;12.190;2023-05-02T03:32:24;28.30;;;22.98;;
23676;SDS011;31493;49.058;12.190;2023-05-02T03:34:52;28.20;;;22.67;;
23676;SDS011;31493;49.058;12.190;2023-05-02T03:37:22;28.30;;;22.60;;
23676;SDS011;31493;49.058;12.190;2023-05-02T03:39:51;28.30;;;23.42;;
23676;SDS011;31493;49.058;12.190;2023-05-02T03:42:18;32.67;;;22.25;;
23676;SDS011;31493;49.058;12.190;2023-05-02T03:44:45;31.52;;;22.67;;
23676;SDS011;31493;49.058;12.190;2023-05-02T03:47:12;28.42;;;22.65;;
23676;SDS011;31493;49.058;12.190;2023-05-02T03:49:39;31.40;;;23.15;;
23676;SDS011;31493;49.058;12.190;2023-05-02T03:52:06;30.23;;;23.92;;
23676;SDS011;31493;49.058;12.190;2023-05-02T03:54:33;30.63;;;21.90;;
23676;SDS011;31493;49.058;12.190;2023-05-02T03:57:02;27.40;;;22.50;;
23676;SDS011;31493;49.058;12.190;2023-05-02T03:59:31;28.02;;;21.15;;
23676;SDS011;31493;49.058;12.190;2023-05-02T04:01:58;27.92;;;21.88;;
23676;SDS011;31493;49.058;12.190;2023-05-02T04:04:25;26.40;;;20.55;;
23676;SDS011;31493;49.058;12.190;2023-05-02T04:06:52;29.50;;;22.13;;
23676;SDS011;31493;49.058;12.190;2023-05-02T04:09:19;28.23;;;21.83;;
23676;SDS011;31493;49.058;12.190;2023-05-02T04:11:49;27.70;;;20.60;;
23676;SDS011;31493;49.058;12.190;2023-05-02T04:14:18;32.35;;;22.85;;
23676;SDS011;31493;49.058;12.190;2023-05-02T04:16:48;32.40;;;22.67;;
23676;SDS011;31493;49.058;12.190;2023-05-02T04:19:15;30.70;;;24.02;;
23676;SDS011;31493;49.058;12.190;2023-05-02T04:21:43;32.37;;;24.43;;
23676;SDS011;31493;49.058;12.190;2023-05-02T04:24:11;29.55;;;23.60;;
23676;SDS011;31493;49.058;12.190;2023-05-02T04:26:39;28.53;;;23.30;;
23676;SDS011;31493;49.058;12.190;2023-05-02T04:29:06;33.03;;;23.90;;
23676;SDS011;31493;49.058;12.190;2023-05-02T04:31:34;29.42;;;22.25;;
23676;SDS011;31493;49.058;12.190;2023-05-02T04:34:01;26.13;;;19.80;;
23676;SDS011;31493;49.058;12.190;2023-05-02T04:36:29;29.25;;;22.33;;
23676;SDS011;31493;49.058;12.190;2023-05-02T04:38:56;27.45;;;19.35;;
23676;SDS011;31493;49.058;12.190;2023-05-02T04:41:23;27.30;;;20.67;;
23676;SDS011;31493;49.058;12.190;2023-05-02T04:43:50;28.77;;;21.30;;
23676;SDS011;31493;49.058;12.190;2023-05-02T04:46:18;27.20;;;20.15;;
23676;SDS011;31493;49.058;12.190;2023-05-02T04:48:46;24.08;;;19.58;;
23676;SDS011;31493;49.058;12.190;2023-05-02T04:51:13;26.63;;;21.33;;
23676;SDS011;31493;49.058;12.190;2023-05-02T04:53:40;31.83;;;23.23;;
23676;SDS011;31493;49.058;12.190;2023-05-02T04:56:07;29.55;;;22.73;;
23676;SDS011;31493;49.058;12.190;2023-05-02T04:58:34;26.40;;;21.58;;
23676;SDS011;31493;49.058;12.190;2023-05-02T05:01:01;28.25;;;21.48;;
23676;SDS011;31493;49.058;12.190;2023-05-02T05:03:28;29.05;;;22.83;;
23676;SDS011;31493;49.058;12.190;2023-05-02T05:05:57;27.38;;;21.42;;
23676;SDS011;31493;49.058;12.190;2023-05-02T05:08:24;36.42;;;23.52;;
23676;SDS011;31493;49.058;12.190;2023-05-02T05:10:51;36.75;;;24.05;;
23676;SDS011;31493;49.058;12.190;2023-05-02T05:13:18;38.17;;;24.35;;
23676;SDS011;31493;49.058;12.190;2023-05-02T05:15:46;35.38;;;22.88;;
23676;SDS011;31493;49.058;12.190;2023-05-02T05:18:13;32.10;;;23.55;;
23676;SDS011;31493;49.058;12.190;2023-05-02T05:20:40;36.38;;;23.33;;
23676;SDS011;31493;49.058;12.190;2023-05-02T05:23:08;32.25;;;24.48;;
23676;SDS011;31493;49.058;12.190;2023-05-02T05:25:35;31.20;;;22.85;;
23676;SDS011;31493;49.058;12.190;2023-05-02T05:28:02;31.40;;;23.20;;
23676;SDS011;31493;49.058;12.190;2023-05-02T05:30:29;43.17;;;24.40;;
23676;SDS011;31493;49.058;12.190;2023-05-02T05:32:56;31.15;;;21.85;;
23676;SDS011;31493;49.058;12.190;2023-05-02T05:35:24;32.83;;;23.00;;
23676;SDS011;31493;49.058;12.190;2023-05-02T05:37:51;40.22;;;24.80;;
23676;SDS011;31493;49.058;12.190;2023-05-02T05:40:19;41.40;;;24.33;;
23676;SDS011;31493;49.058;12.190;2023-05-02T05:42:46;47.88;;;27.10;;
23676;SDS011;31493;49.058;12.190;2023-05-02T05:45:14;117.70;;;30.30;;
23676;SDS011;31493;49.058;12.190;2023-05-02T05:47:44;120.65;;;26.55;;
23676;SDS011;31493;49.058;12.190;2023-05-02T05:50:11;174.10;;;30.05;;
23676;SDS011;31493;49.058;12.190;2023-05-02T05:52:38;119.78;;;32.17;;
23676;SDS011;31493;49.058;12.190;2023-05-02T05:55:06;70.55;;;32.85;;
23676;SDS011;31493;49.058;12.190;2023-05-02T05:57:34;49.30;;;29.88;;
23676;SDS011;31493;49.058;12.190;2023-05-02T06:00:02;39.65;;;28.33;;
23676;SDS011;31493;49.058;12.190;2023-05-02T06:02:29;41.17;;;28.13;;
23676;SDS011;31493;49.058;12.190;2023-05-02T06:04:56;39.90;;;27.13;;
23676;SDS011;31493;49.058;12.190;2023-05-02T06:07:23;38.30;;;27.65;;
23676;SDS011;31493;49.058;12.190;2023-05-02T06:09:50;37.65;;;26.88;;
23676;SDS011;31493;49.058;12.190;2023-05-02T06:12:17;32.13;;;25.10;;
23676;SDS011;31493;49.058;12.190;2023-05-02T06:14:45;32.75;;;24.42;;
23676;SDS011;31493;49.058;12.190;2023-05-02T06:17:12;31.42;;;22.30;;
23676;SDS011;31493;49.058;12.190;2023-05-02T06:19:40;35.97;;;23.23;;
23676;SDS011;31493;49.058;12.190;2023-05-02T06:22:07;30.02;;;22.20;;
23676;SDS011;31493;49.058;12.190;2023-05-02T06:24:34;33.17;;;23.08;;
23676;SDS011;31493;49.058;12.190;2023-05-02T06:27:02;26.63;;;22.33;;
23676;SDS011;31493;49.058;12.190;2023-05-02T06:29:29;29.40;;;21.77;;
23676;SDS011;31493;49.058;12.190;2023-05-02T06:31:57;26.17;;;20.70;;
23676;SDS011;31493;49.058;12.190;2023-05-02T06:34:24;25.73;;;20.75;;
23676;SDS011;31493;49.058;12.190;2023-05-02T06:36:52;28.23;;;21.08;;
23676;SDS011;31493;49.058;12.190;2023-05-02T06:39:20;24.17;;;18.83;;
23676;SDS011;31493;49.058;12.190;2023-05-02T06:41:47;24.05;;;18.58;;
23676;SDS011;31493;49.058;12.190;2023-05-02T06:44:14;23.98;;;18.13;;
23676;SDS011;31493;49.058;12.190;2023-05-02T06:46:41;24.27;;;19.15;;
23676;SDS011;31493;49.058;12.190;2023-05-02T06:49:09;22.13;;;18.48;;
23676;SDS011;31493;49.058;12.190;2023-05-02T06:51:36;24.38;;;20.58;;
23676;SDS011;31493;49.058;12.190;2023-05-02T06:54:04;23.83;;;18.92;;
23676;SDS011;31493;49.058;12.190;2023-05-02T06:56:31;24.77;;;19.52;;
23676;SDS011;31493;49.058;12.190;2023-05-02T06:58:58;22.48;;;18.50;;
23676;SDS011;31493;49.058;12.190;2023-05-02T07:01:26;20.38;;;17.05;;
23676;SDS011;31493;49.058;12.190;2023-05-02T07:03:53;22.67;;;18.10;;
23676;SDS011;31493;49.058;12.190;2023-05-02T07:06:22;21.92;;;16.83;;
23676;SDS011;31493;49.058;12.190;2023-05-02T07:08:49;24.08;;;16.67;;
23676;SDS011;31493;49.058;12.190;2023-05-02T07:11:16;27.55;;;18.70;;
23676;SDS011;31493;49.058;12.190;2023-05-02T07:13:43;23.67;;;16.30;;
23676;SDS011;31493;49.058;12.190;2023-05-02T07:16:11;20.65;;;16.73;;
23676;SDS011;31493;49.058;12.190;2023-05-02T07:18:38;18.38;;;15.23;;
23676;SDS011;31493;49.058;12.190;2023-05-02T07:21:05;18.77;;;15.05;;
23676;SDS011;31493;49.058;12.190;2023-05-02T07:23:33;18.92;;;14.95;;
23676;SDS011;31493;49.058;12.190;2023-05-02T07:26:00;19.63;;;16.08;;
23676;SDS011;31493;49.058;12.190;2023-05-02T07:28:27;22.30;;;16.10;;
23676;SDS011;31493;49.058;12.190;2023-05-02T07:30:55;18.13;;;15.48;;
23676;SDS011;31493;49.058;12.190;2023-05-02T07:33:22;19.73;;;15.90;;
23676;SDS011;31493;49.058;12.190;2023-05-02T07:35:49;17.77;;;14.25;;
23676;SDS011;31493;49.058;12.190;2023-05-02T07:38:17;22.40;;;15.65;;
23676;SDS011;31493;49.058;12.190;2023-05-02T07:40:45;21.88;;;15.57;;
23676;SDS011;31493;49.058;12.190;2023-05-02T07:43:12;19.65;;;16.17;;
23676;SDS011;31493;49.058;12.190;2023-05-02T07:45:40;23.10;;;16.27;;
23676;SDS011;31493;49.058;12.190;2023-05-02T07:48:07;19.60;;;14.98;;
23676;SDS011;31493;49.058;12.190;2023-05-02T07:50:34;17.88;;;15.00;;
23676;SDS011;31493;49.058;12.190;2023-05-02T07:53:01;18.63;;;14.18;;
23676;SDS011;31493;49.058;12.190;2023-05-02T07:55:28;17.52;;;14.93;;
23676;SDS011;31493;49.058;12.190;2023-05-02T07:57:59;18.70;;;13.85;;
23676;SDS011;31493;49.058;12.190;2023-05-02T08:00:26;16.58;;;13.85;;
23676;SDS011;31493;49.058;12.190;2023-05-02T08:02:53;15.77;;;13.45;;
23676;SDS011;31493;49.058;12.190;2023-05-02T08:05:20;14.88;;;12.45;;
23676;SDS011;31493;49.058;12.190;2023-05-02T08:07:47;17.67;;;12.40;;
23676;SDS011;31493;49.058;12.190;2023-05-02T08:10:14;14.52;;;13.02;;
23676;SDS011;31493;49.058;12.190;2023-05-02T08:12:41;14.75;;;12.80;;
23676;SDS011;31493;49.058;12.190;2023-05-02T08:15:10;15.48;;;12.07;;
23676;SDS011;31493;49.058;12.190;2023-05-02T08:17:38;13.77;;;12.23;;
23676;SDS011;31493;49.058;12.190;2023-05-02T08:20:06;13.90;;;11.23;;
23676;SDS011;31493;49.058;12.190;2023-05-02T08:22:33;16.48;;;11.50;;
23676;SDS011;31493;49.058;12.190;2023-05-02T08:25:00;13.43;;;11.25;;
23676;SDS011;31493;49.058;12.190;2023-05-02T08:27:27;13.98;;;11.50;;
23676;SDS011;31493;49.058;12.190;2023-05-02T08:29:54;13.43;;;11.82;;
23676;SDS011;31493;49.058;12.190;2023-05-02T08:32:23;13.80;;;11.70;;
23676;SDS011;31493;49.058;12.190;2023-05-02T08:34:53;15.95;;;11.68;;
23676;SDS011;31493;49.058;12.190;2023-05-02T08:37:20;12.68;;;11.35;;
23676;SDS011;31493;49.058;12.190;2023-05-02T08:39:47;13.32;;;11.10;;
23676;SDS011;31493;49.058;12.190;2023-05-02T08:42:14;12.40;;;10.43;;
23676;SDS011;31493;49.058;12.190;2023-05-02T08:44:41;15.77;;;10.88;;
23676;SDS011;31493;49.058;12.190;2023-05-02T08:47:09;14.05;;;11.18;;
23676;SDS011;31493;49.058;12.190;2023-05-02T08:49:41;13.70;;;10.75;;
23676;SDS011;31493;49.058;12.190;2023-05-02T08:52:08;12.52;;;11.02;;
23676;SDS011;31493;49.058;12.190;2023-05-02T08:54:37;14.90;;;11.15;;
23676;SDS011;31493;49.058;12.190;2023-05-02T08:57:04;11.05;;;9.73;;
23676;SDS011;31493;49.058;12.190;2023-05-02T08:59:31;12.95;;;11.30;;
23676;SDS011;31493;49.058;12.190;2023-05-02T09:02:00;11.75;;;10.25;;
23676;SDS011;31493;49.058;12.190;2023-05-02T09:04:31;11.63;;;10.00;;
23676;SDS011;31493;49.058;12.190;2023-05-02T09:07:01;12.38;;;10.52;;
23676;SDS011;31493;49.058;12.190;2023-05-02T09:09:28;12.20;;;9.77;;
23676;SDS011;31493;49.058;12.190;2023-05-02T09:11:57;11.48;;;10.25;;
23676;SDS011;31493;49.058;12.190;2023-05-02T09:14:24;14.25;;;10.35;;
23676;SDS011;31493;49.058;12.190;2023-05-02T09:16:56;12.88;;;9.95;;
23676;SDS011;31493;49.058;12.190;2023-05-02T09:19:25;13.20;;;10.88;;
23676;SDS011;31493;49.058;12.190;2023-05-02T09:22:00;11.80;;;10.05;;
23676;SDS011;31493;49.058;12.190;2023-05-02T09:24:28;13.23;;;11.00;;
23676;SDS011;31493;49.058;12.190;2023-05-02T09:26:56;15.73;;;11.13;;
23676;SDS011;31493;49.058;12.190;2023-05-02T09:29:25;12.30;;;10.65;;
23676;SDS011;31493;49.058;12.190;2023-05-02T09:31:55;13.05;;;10.68;;
23676;SDS011;31493;49.058;12.190;2023-05-02T09:34:22;14.32;;;10.35;;
23676;SDS011;31493;49.058;12.190;2023-05-02T09:36:50;13.10;;;10.15;;
23676;SDS011;31493;49.058;12.190;2023-05-02T09:41:47;13.57;;;10.73;;
23676;SDS011;31493;49.058;12.190;2023-05-02T09:44:15;12.80;;;11.32;;
23676;SDS011;31493;49.058;12.190;2023-05-02T09:46:44;14.23;;;11.70;;
23676;SDS011;31493;49.058;12.190;2023-05-02T09:49:12;13.57;;;12.07;;
23676;SDS011;31493;49.058;12.190;2023-05-02T09:51:43;13.23;;;11.15;;
23676;SDS011;31493;49.058;12.190;2023-05-02T09:54:11;14.10;;;11.85;;
23676;SDS011;31493;49.058;12.190;2023-05-02T09:56:52;13.25;;;11.43;;
23676;SDS011;31493;49.058;12.190;2023-05-02T09:59:21;16.80;;;12.27;;
23676;SDS011;31493;49.058;12.190;2023-05-02T10:01:55;16.00;;;12.82;;
23676;SDS011;31493;49.058;12.190;2023-05-02T10:04:23;17.10;;;12.68;;
23676;SDS011;31493;49.058;12.190;2023-05-02T10:06:51;19.05;;;12.50;;
23676;SDS011;31493;49.058;12.190;2023-05-02T10:09:19;14.67;;;11.80;;
23676;SDS011;31493;49.058;12.190;2023-05-02T10:11:48;15.93;;;12.93;;
23676;SDS011;31493;49.058;12.190;2023-05-02T10:14:18;15.80;;;13.20;;
23676;SDS011;31493;49.058;12.190;2023-05-02T10:16:50;14.88;;;12.45;;
23676;SDS011;31493;49.058;12.190;2023-05-02T10:19:22;14.85;;;11.63;;
23676;SDS011;31493;49.058;12.190;2023-05-02T10:21:53;14.25;;;12.45;;
23676;SDS011;31493;49.058;12.190;2023-05-02T10:24:21;13.70;;;12.30;;
23676;SDS011;31493;49.058;12.190;2023-05-02T10:26:49;13.13;;;11.70;;
23676;SDS011;31493;49.058;12.190;2023-05-02T10:29:19;14.20;;;12.37;;
23676;SDS011;31493;49.058;12.190;2023-05-02T10:31:46;14.52;;;12.60;;
23676;SDS011;31493;49.058;12.190;2023-05-02T10:34:14;15.52;;;12.90;;
23676;SDS011;31493;49.058;12.190;2023-05-02T10:36:44;14.43;;;12.88;;
23676;SDS011;31493;49.058;12.190;2023-05-02T10:39:11;16.25;;;12.55;;
23676;SDS011;31493;49.058;12.190;2023-05-02T10:41:38;15.13;;;12.25;;
23676;SDS011;31493;49.058;12.190;2023-05-02T10:44:07;15.27;;;12.00;;
23676;SDS011;31493;49.058;12.190;2023-05-02T10:46:36;12.85;;;11.45;;
23676;SDS011;31493;49.058;12.190;2023-05-02T10:49:06;13.50;;;11.45;;
23676;SDS011;31493;49.058;12.190;2023-05-02T10:51:34;12.85;;;10.77;;
23676;SDS011;31493;49.058;12.190;2023-05-02T10:59:33;16.25;;;12.05;;
23676;SDS011;31493;49.058;12.190;2023-05-02T11:02:03;15.13;;;12.35;;
23676;SDS011;31493;49.058;12.190;2023-05-02T11:04:57;14.65;;;12.02;;
23676;SDS011;31493;49.058;12.190;2023-05-02T11:07:26;13.85;;;11.27;;
23676;SDS011;31493;49.058;12.190;2023-05-02T11:09:53;11.70;;;10.32;;
23676;SDS011;31493;49.058;12.190;2023-05-02T11:12:53;13.93;;;11.43;;
23676;SDS011;31493;49.058;12.190;2023-05-02T11:18:26;14.43;;;11.27;;
23676;SDS011;31493;49.058;12.190;2023-05-02T11:21:26;14.20;;;11.82;;
23676;SDS011;31493;49.058;12.190;2023-05-02T11:30:04;14.20;;;10.52;;
23676;SDS011;31493;49.058;12.190;2023-05-02T11:35:42;12.77;;;10.80;;
23676;SDS011;31493;49.058;12.190;2023-05-02T11:38:18;13.40;;;10.52;;
23676;SDS011;31493;49.058;12.190;2023-05-02T11:40:50;13.70;;;10.32;;
23676;SDS011;31493;49.058;12.190;2023-05-02T11:43:22;15.07;;;10.98;;
23676;SDS011;31493;49.058;12.190;2023-05-02T11:45:51;12.55;;;10.20;;
23676;SDS011;31493;49.058;12.190;2023-05-02T11:48:19;14.73;;;10.37;;
23676;SDS011;31493;49.058;12.190;2023-05-02T11:55:44;12.13;;;9.60;;
23676;SDS011;31493;49.058;12.190;2023-05-02T11:58:13;12.88;;;10.38;;
23676;SDS011;31493;49.058;12.190;2023-05-02T12:00:42;12.35;;;10.43;;
23676;SDS011;31493;49.058;12.190;2023-05-02T12:06:09;13.02;;;9.98;;
23676;SDS011;31493;49.058;12.190;2023-05-02T12:08:37;12.38;;;10.15;;
23676;SDS011;31493;49.058;12.190;2023-05-02T12:11:05;12.05;;;9.60;;
23676;SDS011;31493;49.058;12.190;2023-05-02T12:13:32;12.35;;;8.93;;
23676;SDS011;31493;49.058;12.190;2023-05-02T12:15:59;10.27;;;8.77;;
23676;SDS011;31493;49.058;12.190;2023-05-02T12:18:26;12.10;;;8.57;;
23676;SDS011;31493;49.058;12.190;2023-05-02T12:20:54;13.45;;;8.48;;
23676;SDS011;31493;49.058;12.190;2023-05-02T12:23:23;12.30;;;8.30;;
23676;SDS011;31493;49.058;12.190;2023-05-02T12:25:51;11.05;;;7.68;;
23676;SDS011;31493;49.058;12.190;2023-05-02T12:28:19;10.32;;;7.38;;
23676;SDS011;31493;49.058;12.190;2023-05-02T12:30:48;8.75;;;6.95;;
23676;SDS011;31493;49.058;12.190;2023-05-02T12:33:16;8.50;;;6.47;;
23676;SDS011;31493;49.058;12.190;2023-05-02T12:35:44;8.05;;;7.22;;
23676;SDS011;31493;49.058;12.190;2023-05-02T12:38:13;9.83;;;7.20;;
23676;SDS011;31493;49.058;12.190;2023-05-02T12:40:50;8.27;;;7.18;;
23676;SDS011;31493;49.058;12.190;2023-05-02T12:43:18;9.35;;;6.88;;
23676;SDS011;31493;49.058;12.190;2023-05-02T12:45:47;10.82;;;7.43;;
23676;SDS011;31493;49.058;12.190;2023-05-02T12:48:22;8.38;;;7.40;;
23676;SDS011;31493;49.058;12.190;2023-05-02T12:50:50;13.43;;;7.53;;
23676;SDS011;31493;49.058;12.190;2023-05-02T12:53:37;15.13;;;7.43;;
23676;SDS011;31493;49.058;12.190;2023-05-02T12:56:07;7.70;;;6.70;;
23676;SDS011;31493;49.058;12.190;2023-05-02T13:01:08;7.80;;;6.28;;
23676;SDS011;31493;49.058;12.190;2023-05-02T13:03:36;7.13;;;6.38;;
23676;SDS011;31493;49.058;12.190;2023-05-02T13:06:03;7.85;;;6.25;;
23676;SDS011;31493;49.058;12.190;2023-05-02T13:08:31;10.07;;;6.63;;
23676;SDS011;31493;49.058;12.190;2023-05-02T13:10:59;7.10;;;6.00;;
23676;SDS011;31493;49.058;12.190;2023-05-02T13:13:27;8.52;;;6.22;;
23676;SDS011;31493;49.058;12.190;2023-05-02T13:15:55;7.68;;;6.72;;
23676;SDS011;31493;49.058;12.190;2023-05-02T13:18:22;9.20;;;6.38;;
23676;SDS011;31493;49.058;12.190;2023-05-02T13:20:49;8.65;;;5.70;;
23676;SDS011;31493;49.058;12.190;2023-05-02T13:23:16;6.82;;;5.30;;
23676;SDS011;31493;49.058;12.190;2023-05-02T13:25:43;7.50;;;6.70;;
23676;SDS011;31493;49.058;12.190;2023-05-02T13:28:10;9.60;;;5.82;;
23676;SDS011;31493;49.058;12.190;2023-05-02T13:30:38;7.40;;;5.80;;
23676;SDS011;31493;49.058;12.190;2023-05-02T13:33:05;6.70;;;5.85;;
23676;SDS011;31493;49.058;12.190;2023-05-02T13:35:36;12.73;;;6.20;;
23676;SDS011;31493;49.058;12.190;2023-05-02T13:38:03;6.55;;;5.82;;
23676;SDS011;31493;49.058;12.190;2023-05-02T13:40:30;8.63;;;6.20;;
23676;SDS011;31493;49.058;12.190;2023-05-02T13:42:57;8.10;;;6.30;;
23676;SDS011;31493;49.058;12.190;2023-05-02T13:45:24;10.15;;;5.82;;
23676;SDS011;31493;49.058;12.190;2023-05-02T13:47:52;7.63;;;5.90;;
23676;SDS011;31493;49.058;12.190;2023-05-02T13:50:20;8.38;;;5.93;;
23676;SDS011;31493;49.058;12.190;2023-05-02T13:52:47;8.23;;;5.65;;
23676;SDS011;31493;49.058;12.190;2023-05-02T13:55:14;6.32;;;5.35;;
23676;SDS011;31493;49.058;12.190;2023-05-02T13:57:41;8.55;;;5.53;;
23676;SDS011;31493;49.058;12.190;2023-05-02T14:00:09;7.65;;;5.53;;
23676;SDS011;31493;49.058;12.190;2023-05-02T14:02:37;8.90;;;5.50;;
23676;SDS011;31493;49.058;12.190;2023-05-02T14:05:06;9.40;;;6.18;;
23676;SDS011;31493;49.058;12.190;2023-05-02T14:07:33;8.30;;;5.75;;
23676;SDS011;31493;49.058;12.190;2023-05-02T14:10:00;7.93;;;5.30;;
23676;SDS011;31493;49.058;12.190;2023-05-02T14:12:27;6.43;;;5.10;;
23676;SDS011;31493;49.058;12.190;2023-05-02T14:14:55;7.50;;;5.38;;
23676;SDS011;31493;49.058;12.190;2023-05-02T14:17:22;5.90;;;4.40;;
23676;SDS011;31493;49.058;12.190;2023-05-02T14:19:50;7.50;;;4.82;;
23676;SDS011;31493;49.058;12.190;2023-05-02T14:22:18;5.53;;;4.32;;
23676;SDS011;31493;49.058;12.190;2023-05-02T14:24:45;5.47;;;4.53;;
23676;SDS011;31493;49.058;12.190;2023-05-02T14:27:12;6.20;;;5.00;;
23676;SDS011;31493;49.058;12.190;2023-05-02T14:29:43;5.35;;;4.50;;
23676;SDS011;31493;49.058;12.190;2023-05-02T14:32:10;6.80;;;4.50;;
23676;SDS011;31493;49.058;12.190;2023-05-02T14:34:37;4.70;;;4.05;;
23676;SDS011;31493;49.058;12.190;2023-05-02T14:37:04;5.22;;;3.45;;
23676;SDS011;31493;49.058;12.190;2023-05-02T14:39:34;4.22;;;3.72;;
23676;SDS011;31493;49.058;12.190;2023-05-02T14:42:01;6.28;;;3.78;;
23676;SDS011;31493;49.058;12.190;2023-05-02T14:44:29;4.45;;;3.70;;
23676;SDS011;31493;49.058;12.190;2023-05-02T14:46:56;5.30;;;3.60;;
23676;SDS011;31493;49.058;12.190;2023-05-02T14:49:23;5.05;;;3.97;;
23676;SDS011;31493;49.058;12.190;2023-05-02T14:51:50;5.18;;;3.53;;
23676;SDS011;31493;49.058;12.190;2023-05-02T14:54:18;6.15;;;4.22;;
23676;SDS011;31493;49.058;12.190;2023-05-02T14:56:46;7.50;;;4.30;;
23676;SDS011;31493;49.058;12.190;2023-05-02T14:59:14;5.60;;;4.40;;